Time;durP1;ratioP1;P1;durP2;ratioP2;P2;SDS_P1;SDS_P2;PMS_P1;PMS_P2;Temp;Humidity;BMP_temperature;BMP_pressure;BME280_temperature;BME280_humidity;BME280_pressure;Samples;Min_cycle;Max_cycle;Signal;HPM_P1;HPM_P2
2021/12/24 00:00:09;;;;;;;;;;;;;;;;;;;;;
2021/12/24 00:02:32;;;;;;;31.30;16.08;;;9.20;99.90;;;;;;4181078;28;20225;-96
2021/12/24 00:05:03;;;;;;;30.80;15.52;;;9.20;99.90;;;;;;4197744;28;20186;-94
2021/12/24 00:07:21;;;;;;;33.95;16.15;;;9.20;99.90;;;;;;4197904;28;20231;-94
2021/12/24 00:10:12;;;;;;;31.98;16.15;;;9.30;99.90;;;;;;4183961;28;20660;-93
2021/12/24 00:12:20;;;;;;;29.42;15.82;;;9.30;99.90;;;;;;4198258;28;20202;-93
2021/12/24 00:14:31;;;;;;;27.43;16.27;;;9.30;99.90;;;;;;4198086;28;20197;-94
2021/12/24 00:17:08;;;;;;;33.67;16.02;;;9.30;99.90;;;;;;4198238;28;20211;-95
2021/12/24 00:36:38;;;;;;;31.90;15.25;;;9.40;99.90;;;;;;4180989;28;20217;-93
2021/12/24 00:38:39;;;;;;;27.77;14.15;;;9.40;99.90;;;;;;4164588;28;20525;-94
2021/12/24 00:41:39;;;;;;;35.47;14.68;;;9.40;99.90;;;;;;4164759;28;20171;-96
2021/12/24 00:43:54;;;;;;;33.50;15.50;;;9.50;99.90;;;;;;4183058;28;20179;-94
2021/12/24 00:46:16;;;;;;;24.98;13.52;;;9.50;99.90;;;;;;4201723;28;20186;-95
2021/12/24 00:48:30;;;;;;;33.85;17.27;;;9.60;99.90;;;;;;4167325;28;20322;-94
2021/12/24 00:50:48;;;;;;;29.20;14.20;;;9.80;99.90;;;;;;4200995;28;20179;-95
2021/12/24 00:55:25;;;;;;;26.05;13.50;;;9.60;99.90;;;;;;4178788;28;20206;-93
2021/12/24 00:57:35;;;;;;;29.55;14.98;;;9.70;99.90;;;;;;4184017;28;20571;-96
2021/12/24 00:59:36;;;;;;;28.23;14.35;;;9.80;99.90;;;;;;4200355;28;20187;-94
2021/12/24 01:01:39;;;;;;;25.38;13.63;;;9.90;99.90;;;;;;4200347;28;20175;-95
2021/12/24 01:04:02;;;;;;;30.25;15.70;;;9.80;99.90;;;;;;4200551;28;20170;-93
2021/12/24 01:06:15;;;;;;;28.50;14.13;;;9.70;99.90;;;;;;4200218;28;20222;-96
2021/12/24 01:08:42;;;;;;;30.17;14.63;;;9.80;99.90;;;;;;4186084;28;20647;-94
2021/12/24 01:10:53;;;;;;;37.42;15.90;;;9.90;99.90;;;;;;4200331;28;20175;-94
2021/12/24 01:13:17;;;;;;;28.83;15.07;;;9.80;99.90;;;;;;4185826;28;20210;-93
2021/12/24 01:15:21;;;;;;;32.35;15.02;;;9.70;99.90;;;;;;4183993;28;20195;-93
2021/12/24 01:20:03;;;;;;;31.58;15.02;;;9.60;99.90;;;;;;4183675;28;20171;-94
2021/12/24 01:25:11;;;;;;;30.85;15.00;;;9.50;99.90;;;;;;4217116;28;20526;-95
2021/12/24 01:39:52;;;;;;;27.25;15.13;;;9.80;99.90;;;;;;4183377;28;20246;-95
2021/12/24 01:44:39;;;;;;;31.30;14.75;;;9.60;99.90;;;;;;4183420;28;20272;-94
2021/12/24 01:46:47;;;;;;;42.15;17.13;;;9.70;99.90;;;;;;4183447;28;20671;-93
2021/12/24 01:48:55;;;;;;;32.47;16.00;;;9.80;99.90;;;;;;4200220;28;20171;-95
2021/12/24 01:51:19;;;;;;;33.05;15.73;;;9.70;99.90;;;;;;4166477;28;20238;-92
2021/12/24 01:53:34;;;;;;;36.20;16.15;;;9.70;99.90;;;;;;4167448;28;20168;-95
2021/12/24 01:55:36;;;;;;;32.42;16.08;;;9.80;99.90;;;;;;4166482;28;20200;-95
2021/12/24 01:57:46;;;;;;;34.40;16.42;;;9.80;99.90;;;;;;4183238;28;20211;-94
2021/12/24 02:00:23;;;;;;;40.08;16.77;;;9.90;99.90;;;;;;4200737;28;20573;-93
2021/12/24 02:02:27;;;;;;;41.20;16.80;;;10.00;99.90;;;;;;4185390;28;20543;-93
2021/12/24 02:05:03;;;;;;;38.85;16.67;;;10.10;99.90;;;;;;4183643;28;20183;-94
2021/12/24 02:07:21;;;;;;;;;;;;;;;;;;;;;
2021/12/24 02:09:34;;;;;;;38.05;16.60;;;9.90;99.90;;;;;;4216421;28;20257;-93
2021/12/24 02:11:50;;;;;;;;;;;;;;;;;;;;;
2021/12/24 02:14:02;;;;;;;38.28;16.45;;;9.80;99.90;;;;;;4183044;28;20171;-94
2021/12/24 02:16:37;;;;;;;34.03;16.05;;;9.90;99.90;;;;;;4181634;28;20191;-94
2021/12/24 02:28:30;;;;;;;33.58;15.63;;;9.90;99.90;;;;;;4182837;28;20190;-94
2021/12/24 02:30:32;;;;;;;31.23;16.20;;;9.90;99.90;;;;;;4166195;28;20245;-93
2021/12/24 02:32:40;;;;;;;34.83;16.10;;;9.90;99.90;;;;;;4182413;28;20172;-94
2021/12/24 02:34:44;;;;;;;39.20;15.60;;;10.00;99.90;;;;;;4199295;28;20519;-94
2021/12/24 02:39:28;;;;;;;27.80;14.60;;;9.90;99.90;;;;;;4173221;28;20675;-93
2021/12/24 02:41:32;;;;;;;38.08;15.98;;;9.80;99.90;;;;;;4165774;28;20680;-94
2021/12/24 02:43:47;;;;;;;;;;;;;;;;;;;;;
2021/12/24 02:46:08;;;;;;;32.22;15.50;;;9.90;99.90;;;;;;4215564;28;20190;-94
2021/12/24 02:54:51;;;;;;;36.03;15.60;;;10.00;99.90;;;;;;4182319;28;20176;-94
2021/12/24 02:57:06;;;;;;;31.27;14.60;;;10.00;99.90;;;;;;4182324;28;20246;-93
2021/12/24 02:59:15;;;;;;;34.15;13.57;;;10.00;99.90;;;;;;4165429;28;20195;-95
2021/12/24 03:01:30;;;;;;;34.78;15.15;;;9.90;99.90;;;;;;4198693;28;20210;-93
2021/12/24 03:03:48;;;;;;;30.58;14.43;;;9.90;99.90;;;;;;4182069;28;20206;-93
2021/12/24 03:05:51;;;;;;;29.42;13.90;;;9.90;99.90;;;;;;4165133;28;20676;-94
2021/12/24 03:08:00;;;;;;;35.63;13.85;;;9.80;99.90;;;;;;4165650;28;20230;-94
2021/12/24 03:10:05;;;;;;;37.13;14.73;;;9.80;99.90;;;;;;4165764;28;20222;-94
2021/12/24 03:12:10;;;;;;;34.17;14.65;;;10.00;99.90;;;;;;4198666;28;20179;-94
2021/12/24 03:14:15;;;;;;;35.42;14.27;;;10.00;99.90;;;;;;4198684;28;20236;-94
2021/12/24 03:16:19;;;;;;;30.55;13.73;;;10.00;99.90;;;;;;4198312;28;20295;-94
2021/12/24 03:18:36;;;;;;;37.92;13.48;;;9.90;99.90;;;;;;4199839;28;20718;-95
2021/12/24 03:20:40;;;;;;;35.47;13.88;;;9.80;99.90;;;;;;4181881;28;20194;-95
2021/12/24 03:23:03;;;;;;;32.33;13.90;;;9.70;99.90;;;;;;4165341;28;20176;-94
2021/12/24 03:25:07;;;;;;;36.03;14.23;;;9.70;99.90;;;;;;4165378;28;20652;-94
2021/12/24 03:27:09;;;;;;;36.55;14.55;;;9.80;99.90;;;;;;4198286;28;20671;-94
2021/12/24 03:29:11;;;;;;;35.70;14.30;;;9.80;99.90;;;;;;4197995;28;20190;-94
2021/12/24 03:31:39;;;;;;;33.78;15.00;;;9.80;99.90;;;;;;4166125;28;20183;-94
2021/12/24 03:33:44;;;;;;;34.55;14.43;;;10.00;99.90;;;;;;4181705;28;20182;-93
2021/12/24 03:35:57;;;;;;;33.10;15.02;;;10.00;99.90;;;;;;4165273;28;20693;-95
2021/12/24 03:37:58;;;;;;;32.38;14.65;;;10.00;99.90;;;;;;4181481;28;20191;-94
2021/12/24 03:40:04;;;;;;;36.58;15.18;;;10.00;99.90;;;;;;4181641;28;20168;-94
2021/12/24 03:42:06;;;;;;;35.45;14.25;;;10.10;99.90;;;;;;4165194;28;20213;-93
2021/12/24 03:44:09;;;;;;;32.03;14.18;;;10.10;99.90;;;;;;4165066;28;20526;-94
2021/12/24 03:46:17;;;;;;;38.75;14.70;;;10.00;99.90;;;;;;4181485;28;20195;-95
2021/12/24 03:48:44;;;;;;;40.58;15.63;;;9.90;99.90;;;;;;4198125;28;20170;-94
2021/12/24 03:50:55;;;;;;;41.92;15.88;;;9.90;99.90;;;;;;4213895;28;20229;-94
2021/12/24 03:54:55;;;;;;;33.72;14.52;;;10.00;99.90;;;;;;4198060;28;20170;-95
2021/12/24 03:55:28;;;;;;;33.85;14.82;;;9.90;99.90;;;;;;4214320;28;20225;-95
2021/12/24 03:57:46;;;;;;;41.50;16.13;;;10.00;99.90;;;;;;4197713;28;20290;-94
2021/12/24 04:00:17;;;;;;;45.30;15.35;;;10.10;99.90;;;;;;4184626;28;20186;-93
2021/12/24 04:02:18;;;;;;;41.10;15.35;;;10.00;99.90;;;;;;4180733;28;20192;-94
2021/12/24 04:04:45;;;;;;;45.97;14.80;;;10.00;99.90;;;;;;4184070;28;20532;-94
2021/12/24 04:07:11;;;;;;;41.58;14.95;;;10.00;99.90;;;;;;4184015;28;20179;-94
2021/12/24 04:09:45;;;;;;;31.77;14.25;;;10.00;99.90;;;;;;4184651;28;20179;-93
2021/12/24 04:12:13;;;;;;;42.58;15.05;;;10.10;99.90;;;;;;4134284;28;20207;-94
2021/12/24 04:14:14;;;;;;;44.95;15.73;;;10.10;99.90;;;;;;4181216;28;20241;-94
2021/12/24 04:16:17;;;;;;;40.17;15.82;;;10.00;99.90;;;;;;4180946;28;20183;-94
2021/12/24 04:18:44;;;;;;;39.60;15.65;;;10.00;99.90;;;;;;4199431;28;20650;-95
2021/12/24 04:25:46;;;;;;;40.45;15.50;;;10.20;99.90;;;;;;4180733;28;20183;-94
2021/12/24 04:27:51;;;;;;;35.42;15.82;;;10.30;99.90;;;;;;4181049;28;20210;-93
2021/12/24 04:30:03;;;;;;;44.00;16.25;;;10.20;99.90;;;;;;4181096;28;20250;-93
2021/12/24 04:32:11;;;;;;;38.88;16.42;;;10.10;99.90;;;;;;4164651;28;20187;-94
2021/12/24 04:34:50;;;;;;;46.35;16.55;;;10.10;99.90;;;;;;4181343;28;20171;-93
2021/12/24 04:39:48;;;;;;;37.80;16.67;;;10.20;99.90;;;;;;4214402;28;20190;-94
2021/12/24 04:51:43;;;;;;;43.20;16.13;;;10.30;99.90;;;;;;4181067;28;20186;-94
2021/12/24 05:01:16;;;;;;;41.08;16.65;;;10.10;99.90;;;;;;4214134;28;20637;-95
2021/12/24 05:03:28;;;;;;;44.67;17.73;;;10.10;99.90;;;;;;4180949;28;20227;-95
2021/12/24 05:09:58;;;;;;;50.00;18.70;;;10.00;99.90;;;;;;4180769;28;20172;-94
2021/12/24 05:12:01;;;;;;;42.55;18.17;;;9.90;99.90;;;;;;4164124;28;20189;-94
2021/12/24 05:14:04;;;;;;;51.22;17.75;;;9.80;99.90;;;;;;4197350;28;20175;-96
2021/12/24 05:21:33;;;;;;;40.55;17.42;;;9.90;99.90;;;;;;4180427;28;20179;-93
2021/12/24 05:23:40;;;;;;;40.53;16.95;;;10.10;99.90;;;;;;4197128;28;20658;-93
2021/12/24 05:25:53;;;;;;;45.30;18.10;;;10.00;99.90;;;;;;4196951;28;20296;-94
2021/12/24 05:28:05;;;;;;;51.40;18.27;;;9.90;99.90;;;;;;4180412;28;20206;-94
2021/12/24 05:30:06;;;;;;;33.70;17.33;;;9.80;99.90;;;;;;4200097;28;20174;-93
2021/12/24 05:32:08;;;;;;;44.30;17.67;;;9.90;99.90;;;;;;4166916;28;20231;-94
2021/12/24 05:34:09;;;;;;;46.05;17.25;;;10.00;99.90;;;;;;4167126;28;20215;-94
2021/12/24 05:36:12;;;;;;;41.17;18.08;;;9.80;99.90;;;;;;4166942;28;20216;-92
2021/12/24 05:38:15;;;;;;;45.30;17.10;;;9.90;99.90;;;;;;4200067;28;20178;-94
2021/12/24 05:40:16;;;;;;;42.10;16.85;;;10.00;99.90;;;;;;4200447;28;20163;-94
2021/12/24 05:42:22;;;;;;;40.55;17.85;;;9.90;99.90;;;;;;4167091;28;20172;-94
2021/12/24 05:44:25;;;;;;;40.38;17.80;;;9.80;99.90;;;;;;4199922;28;20167;-93
2021/12/24 05:46:55;;;;;;;39.75;17.60;;;9.70;99.90;;;;;;4198470;28;20527;-94
2021/12/24 05:49:27;;;;;;;49.63;17.92;;;9.80;99.90;;;;;;4175913;28;20179;-94
2021/12/24 05:52:19;;;;;;;45.45;17.25;;;9.70;99.90;;;;;;4187165;28;20187;-93
2021/12/24 05:54:35;;;;;;;42.97;17.00;;;9.70;99.90;;;;;;4183440;28;20183;-93
2021/12/24 05:56:44;;;;;;;44.83;17.05;;;9.60;99.90;;;;;;4183142;28;20195;-95
2021/12/24 05:58:55;;;;;;;39.40;17.00;;;9.60;99.90;;;;;;4200604;28;20281;-92
2021/12/24 06:00:57;;;;;;;50.78;20.73;;;9.60;99.90;;;;;;4199721;28;20171;-94
2021/12/24 06:03:11;;;;;;;50.92;18.05;;;9.50;99.90;;;;;;4201371;28;20257;-92
2021/12/24 06:05:12;;;;;;;63.83;19.63;;;9.50;99.90;;;;;;4166591;28;20192;-95
2021/12/24 06:07:13;;;;;;;46.72;19.33;;;9.50;99.90;;;;;;4183234;28;20230;-92
2021/12/24 06:09:13;;;;;;;51.10;23.92;;;9.60;99.90;;;;;;4166913;28;20160;-94
2021/12/24 06:11:15;;;;;;;37.70;16.85;;;9.60;99.90;;;;;;4166641;28;20616;-94
2021/12/24 06:13:16;;;;;;;39.88;21.13;;;9.60;99.90;;;;;;4166828;28;20210;-94
2021/12/24 06:15:20;;;;;;;42.15;17.83;;;9.50;99.90;;;;;;4183198;28;20187;-93
2021/12/24 06:17:24;;;;;;;46.75;15.77;;;9.50;99.90;;;;;;4166313;28;20216;-94
2021/12/24 06:19:26;;;;;;;42.42;16.52;;;9.40;99.90;;;;;;4199646;28;20634;-94
2021/12/24 06:21:30;;;;;;;46.60;17.98;;;9.40;99.90;;;;;;4166367;28;20180;-93
2021/12/24 06:23:33;;;;;;;39.05;17.20;;;9.50;99.90;;;;;;4199710;28;20159;-94
2021/12/24 06:25:37;;;;;;;45.33;16.25;;;9.50;99.90;;;;;;4199120;28;20195;-93
2021/12/24 06:27:40;;;;;;;40.22;16.67;;;9.50;99.90;;;;;;4182590;28;20171;-94
2021/12/24 06:29:41;;;;;;;41.03;16.75;;;9.60;99.90;;;;;;4199090;28;20254;-93
2021/12/24 06:31:44;;;;;;;40.03;16.35;;;9.60;99.90;;;;;;4166139;28;20169;-94
2021/12/24 06:33:47;;;;;;;42.92;17.08;;;9.70;99.90;;;;;;4182628;28;20206;-94
2021/12/24 06:35:56;;;;;;;43.72;16.45;;;9.60;99.90;;;;;;4166227;28;20255;-94
2021/12/24 06:37:59;;;;;;;37.75;16.00;;;9.70;99.90;;;;;;4166371;28;20199;-94
2021/12/24 06:40:03;;;;;;;34.78;15.23;;;9.70;99.90;;;;;;4198502;28;20682;-94
2021/12/24 06:42:11;;;;;;;40.42;16.25;;;9.60;99.90;;;;;;4166291;28;20203;-94
2021/12/24 06:44:26;;;;;;;44.03;16.17;;;9.60;99.90;;;;;;4198978;28;20183;-93
2021/12/24 06:46:40;;;;;;;35.00;14.88;;;9.70;99.90;;;;;;4182675;28;20192;-94
2021/12/24 06:48:53;;;;;;;43.20;16.58;;;9.70;99.90;;;;;;4182881;28;20167;-94
2021/12/24 06:51:00;;;;;;;35.50;15.85;;;9.70;99.90;;;;;;4182688;28;20179;-95
2021/12/24 06:53:08;;;;;;;36.63;14.80;;;9.50;99.90;;;;;;4215524;28;20187;-93
2021/12/24 06:55:13;;;;;;;40.85;15.40;;;9.60;99.90;;;;;;4182377;28;20195;-93
2021/12/24 06:57:25;;;;;;;36.08;15.05;;;9.60;99.90;;;;;;4166126;28;20211;-93
2021/12/24 06:59:28;;;;;;;35.63;16.17;;;9.70;99.90;;;;;;4198646;28;20193;-93
2021/12/24 07:01:49;;;;;;;34.40;15.40;;;9.70;99.90;;;;;;4198318;28;20258;-93
2021/12/24 07:04:02;;;;;;;31.20;15.82;;;9.70;99.90;;;;;;4199361;28;20182;-95
2021/12/24 07:06:09;;;;;;;32.20;14.77;;;9.70;99.90;;;;;;4198559;28;20574;-93
2021/12/24 07:08:15;;;;;;;39.50;15.60;;;9.80;99.90;;;;;;4198565;28;20240;-92
2021/12/24 07:10:26;;;;;;;37.63;14.90;;;9.70;99.90;;;;;;4198431;28;20605;-94
2021/12/24 07:12:33;;;;;;;45.40;15.48;;;9.80;99.90;;;;;;4198897;28;20538;-93
2021/12/24 07:14:37;;;;;;;35.53;13.77;;;9.90;99.90;;;;;;4198242;28;20183;-93
2021/12/24 07:16:44;;;;;;;32.05;12.98;;;9.80;99.90;;;;;;4198254;28;20203;-93
2021/12/24 07:18:47;;;;;;;31.83;13.20;;;9.50;99.90;;;;;;4198375;28;20171;-93
2021/12/24 07:20:48;;;;;;;30.83;13.35;;;9.60;99.90;;;;;;4181703;28;20176;-92
2021/12/24 07:22:53;;;;;;;32.25;13.35;;;9.50;99.90;;;;;;4181785;28;20194;-93
2021/12/24 07:25:12;;;;;;;39.20;14.80;;;9.20;99.90;;;;;;4198329;28;20244;-94
2021/12/24 07:27:14;;;;;;;31.65;13.35;;;9.10;99.90;;;;;;4197986;28;20167;-93
2021/12/24 07:29:14;;;;;;;33.08;13.02;;;9.20;99.90;;;;;;4198226;28;20182;-93
2021/12/24 07:31:15;;;;;;;37.97;13.02;;;9.30;99.90;;;;;;4181743;28;20176;-92
2021/12/24 07:33:19;;;;;;;41.20;13.38;;;9.20;99.90;;;;;;4165546;28;20212;-92
2021/12/24 07:35:33;;;;;;;39.40;14.23;;;9.20;99.90;;;;;;4198090;28;20674;-93
2021/12/24 07:37:34;;;;;;;31.02;14.18;;;9.20;99.90;;;;;;4198169;28;20213;-93
2021/12/24 07:39:35;;;;;;;30.50;14.80;;;9.00;99.90;;;;;;4165292;28;20172;-93
2021/12/24 07:41:36;;;;;;;29.95;13.80;;;9.00;99.90;;;;;;4198217;28;20225;-93
2021/12/24 07:43:41;;;;;;;35.78;15.15;;;9.00;99.90;;;;;;4181459;28;20163;-92
2021/12/24 07:45:44;;;;;;;35.47;14.57;;;9.10;99.90;;;;;;4197730;28;20597;-93
2021/12/24 07:48:05;;;;;;;29.13;15.52;;;9.20;99.90;;;;;;4198054;28;20686;-93
2021/12/24 07:51:57;;;;;;;26.48;13.38;;;9.20;99.90;;;;;;4198150;28;20166;-93
2021/12/24 07:52:35;;;;;;;47.65;21.02;;;9.20;99.90;;;;;;4181326;28;20183;-93
2021/12/24 07:54:53;;;;;;;39.70;15.43;;;9.20;99.90;;;;;;4198475;28;20178;-94
2021/12/24 07:57:12;;;;;;;;;;;;;;;;;;;;;
2021/12/24 07:59:15;;;;;;;49.80;28.83;;;9.30;99.90;;;;;;4198093;28;20175;-93
2021/12/24 08:01:27;;;;;;;40.28;15.82;;;9.30;99.90;;;;;;4181065;28;20187;-94
2021/12/24 08:03:30;;;;;;;37.03;15.63;;;9.20;99.90;;;;;;4181275;28;20175;-94
2021/12/24 08:05:46;;;;;;;32.20;14.93;;;9.30;99.90;;;;;;4197802;28;20218;-95
2021/12/24 08:07:53;;;;;;;34.60;16.25;;;9.30;99.90;;;;;;4198192;28;20297;-93
2021/12/24 08:10:04;;;;;;;35.60;15.13;;;9.40;99.90;;;;;;4181413;28;20171;-93
2021/12/24 08:12:10;;;;;;;36.17;14.85;;;9.20;99.90;;;;;;4197959;28;20212;-94
2021/12/24 08:14:13;;;;;;;39.40;15.15;;;9.20;99.90;;;;;;4197711;28;20171;-93
2021/12/24 08:16:15;;;;;;;38.15;14.63;;;9.20;99.90;;;;;;4164494;28;20286;-94
2021/12/24 08:18:29;;;;;;;35.22;15.07;;;9.30;99.90;;;;;;4182584;28;20167;-94
2021/12/24 08:20:40;;;;;;;36.20;14.60;;;9.30;99.90;;;;;;4181078;28;20172;-95
2021/12/24 08:23:01;;;;;;;35.88;13.88;;;9.20;99.90;;;;;;4198276;28;20654;-93
2021/12/24 08:25:09;;;;;;;35.05;14.65;;;9.30;99.90;;;;;;4181204;28;20691;-94
2021/12/24 08:27:12;;;;;;;33.40;14.80;;;9.20;99.90;;;;;;4164481;28;20180;-95
2021/12/24 08:29:16;;;;;;;33.38;13.95;;;9.30;99.90;;;;;;4181496;28;20222;-95
2021/12/24 08:31:21;;;;;;;31.25;14.75;;;9.20;99.90;;;;;;4181381;28;20172;-93
2021/12/24 08:33:25;;;;;;;43.92;15.57;;;9.30;99.90;;;;;;4181406;28;20262;-95
2021/12/24 08:35:27;;;;;;;37.60;15.30;;;9.40;99.90;;;;;;4197349;28;20197;-94
2021/12/24 08:37:31;;;;;;;38.35;15.25;;;9.40;99.90;;;;;;4197672;28;20293;-94
2021/12/24 08:39:32;;;;;;;41.03;16.42;;;9.30;99.90;;;;;;4197405;28;20171;-92
2021/12/24 08:41:52;;;;;;;;;;;;;;;;;;;;;
2021/12/24 08:43:53;;;;;;;39.58;15.20;;;9.30;99.90;;;;;;4214187;28;20182;-94
2021/12/24 08:45:59;;;;;;;43.97;16.67;;;9.10;99.90;;;;;;4164993;28;20758;-94
2021/12/24 08:48:02;;;;;;;40.97;16.35;;;9.20;99.90;;;;;;4164472;28;20214;-95
2021/12/24 08:50:11;;;;;;;39.17;16.48;;;9.20;99.90;;;;;;4198334;28;20220;-93
2021/12/24 08:52:14;;;;;;;37.60;16.85;;;9.30;99.90;;;;;;4196347;28;20174;-93
2021/12/24 08:54:19;;;;;;;43.45;18.85;;;9.20;99.90;;;;;;4196645;28;20167;-93
2021/12/24 08:56:28;;;;;;;48.25;17.98;;;9.20;99.90;;;;;;4197203;28;20202;-94
2021/12/24 08:58:29;;;;;;;43.75;18.45;;;9.10;99.90;;;;;;4197279;28;20167;-94
2021/12/24 09:00:46;;;;;;;44.80;17.70;;;9.30;99.90;;;;;;4182267;28;20171;-95
2021/12/24 09:02:47;;;;;;;52.35;22.95;;;9.30;99.90;;;;;;4197305;28;20170;-93
2021/12/24 09:04:48;;;;;;;46.45;20.05;;;9.30;99.90;;;;;;4166794;28;20160;-93
2021/12/24 09:06:49;;;;;;;46.85;22.00;;;9.30;99.90;;;;;;4167230;28;20200;-93
2021/12/24 09:09:05;;;;;;;50.20;19.98;;;9.20;99.90;;;;;;4168290;28;20164;-94
2021/12/24 09:11:26;;;;;;;52.90;23.55;;;9.00;99.90;;;;;;4169759;28;20208;-93
2021/12/24 09:13:29;;;;;;;50.75;21.33;;;9.20;99.90;;;;;;4200469;28;20261;-93
2021/12/24 09:15:37;;;;;;;46.45;18.08;;;9.20;99.90;;;;;;4167618;28;20196;-95
2021/12/24 09:17:43;;;;;;;43.85;18.30;;;9.10;99.90;;;;;;4200390;28;20210;-95
2021/12/24 09:20:04;;;;;;;49.22;21.05;;;9.20;99.90;;;;;;4183986;28;20175;-94
2021/12/24 09:22:27;;;;;;;46.90;17.40;;;9.20;99.90;;;;;;4201059;28;20182;-94
2021/12/24 09:24:31;;;;;;;44.65;17.67;;;9.40;99.90;;;;;;4167539;28;20577;-94
2021/12/24 09:26:54;;;;;;;;;;;;;;;;;;;;;
2021/12/24 09:29:05;;;;;;;43.58;20.00;;;9.50;99.90;;;;;;4183801;28;20666;-93
2021/12/24 09:31:44;;;;;;;46.00;20.40;;;9.50;99.90;;;;;;4200261;28;20722;-93
2021/12/24 09:33:47;;;;;;;50.70;17.80;;;9.50;99.90;;;;;;4216329;28;20284;-93
2021/12/24 09:36:09;;;;;;;36.72;16.80;;;9.60;99.90;;;;;;4200222;28;20191;-94
2021/12/24 09:38:17;;;;;;;41.10;17.63;;;9.50;99.90;;;;;;4183638;28;20211;-94
2021/12/24 09:40:35;;;;;;;41.30;16.98;;;9.50;99.90;;;;;;4199893;28;20189;-95
2021/12/24 09:43:18;;;;;;;30.17;15.38;;;9.40;99.90;;;;;;4183443;28;20257;-95
2021/12/24 09:48:07;;;;;;;38.75;15.48;;;9.80;99.90;;;;;;4209853;28;20720;-94
2021/12/24 09:50:25;;;;;;;31.50;14.95;;;9.70;99.90;;;;;;4200224;28;20167;-94
2021/12/24 09:52:27;;;;;;;31.15;14.70;;;9.70;99.90;;;;;;4199855;28;20178;-93
2021/12/24 09:54:29;;;;;;;34.40;16.48;;;9.80;99.90;;;;;;4200252;28;20170;-93
2021/12/24 09:56:32;;;;;;;32.25;16.10;;;9.70;99.90;;;;;;4199477;28;20254;-94
2021/12/24 09:58:36;;;;;;;32.53;15.35;;;9.70;99.90;;;;;;4166467;28;20199;-94
2021/12/24 10:01:00;;;;;;;27.77;13.07;;;9.60;99.90;;;;;;4200145;28;20203;-94
2021/12/24 10:03:39;;;;;;;27.85;14.27;;;9.70;99.90;;;;;;4183453;28;20639;-94
2021/12/24 10:05:54;;;;;;;29.65;13.50;;;9.80;99.90;;;;;;4199803;28;20260;-94
2021/12/24 10:08:35;;;;;;;31.08;15.13;;;9.60;99.90;;;;;;4181381;28;20166;-94
2021/12/24 10:11:03;;;;;;;30.80;13.35;;;9.70;99.90;;;;;;4195354;28;20176;-94
2021/12/24 10:13:49;;;;;;;32.92;14.82;;;9.70;99.90;;;;;;4199599;28;20166;-96
2021/12/24 10:16:35;;;;;;;;;;;;;;;;;;;;;
2021/12/24 10:18:55;;;;;;;39.00;14.82;;;9.70;99.90;;;;;;4183161;28;20191;-95
2021/12/24 10:21:18;;;;;;;38.42;15.07;;;9.90;99.90;;;;;;4200777;28;20171;-93
2021/12/24 10:23:51;;;;;;;37.92;15.20;;;9.90;99.90;;;;;;4199375;28;20218;-94
2021/12/24 10:25:52;;;;;;;34.25;14.05;;;10.00;99.90;;;;;;4166211;28;20286;-94
2021/12/24 10:31:08;;;;;;;37.53;13.88;;;10.00;99.90;;;;;;4132687;28;20185;-93
2021/12/24 10:33:13;;;;;;;39.88;14.13;;;10.00;99.90;;;;;;4161316;28;20191;-93
2021/12/24 10:35:25;;;;;;;33.63;14.30;;;10.00;99.90;;;;;;4199017;28;20199;-93
2021/12/24 10:37:34;;;;;;;33.67;13.60;;;9.80;99.90;;;;;;4182582;28;20211;-94
2021/12/24 10:39:55;;;;;;;36.55;14.23;;;9.70;99.90;;;;;;4182879;28;20202;-93
2021/12/24 10:41:59;;;;;;;32.92;13.90;;;9.80;99.90;;;;;;4166281;28;20199;-93
2021/12/24 10:44:31;;;;;;;31.90;14.05;;;9.80;99.90;;;;;;4166906;28;20573;-94
2021/12/24 10:46:56;;;;;;;29.42;13.25;;;9.70;99.90;;;;;;4198966;28;20195;-94
2021/12/24 10:49:13;;;;;;;;;;;;;;;;;;;;;
2021/12/24 10:54:35;;;;;;;30.73;14.48;;;9.90;99.90;;;;;;4182592;28;20167;-93
2021/12/24 10:57:29;;;;;;;41.72;15.95;;;10.10;99.90;;;;;;4180495;28;20257;-95
2021/12/24 11:00:14;;;;;;;37.00;15.15;;;10.40;99.90;;;;;;4164046;28;20202;-94
2021/12/24 11:02:23;;;;;;;35.42;14.60;;;10.80;99.90;;;;;;4161074;28;20194;-92
2021/12/24 11:04:57;;;;;;;29.83;12.68;;;11.10;99.90;;;;;;4199965;28;20175;-95
2021/12/24 11:07:21;;;;;;;30.25;12.25;;;10.90;99.90;;;;;;4182045;28;20175;-94
2021/12/24 11:09:21;;;;;;;30.95;14.32;;;10.60;99.90;;;;;;4165573;28;20172;-94
2021/12/24 11:11:58;;;;;;;28.65;13.27;;;10.30;99.90;;;;;;4181950;28;20178;-94
2021/12/24 11:14:03;;;;;;;34.72;13.80;;;10.50;99.90;;;;;;4198504;28;20241;-94
2021/12/24 11:16:16;;;;;;;29.48;13.40;;;10.50;99.90;;;;;;4199341;28;20191;-95
2021/12/24 11:18:44;;;;;;;29.50;14.10;;;10.20;99.90;;;;;;4182314;28;20265;-96
2021/12/24 11:21:15;;;;;;;31.05;13.80;;;10.20;99.90;;;;;;4181689;28;20198;-93
2021/12/24 11:23:35;;;;;;;26.02;12.75;;;10.20;99.90;;;;;;4215240;28;20170;-94
2021/12/24 11:25:46;;;;;;;30.73;13.93;;;10.20;99.90;;;;;;4198486;28;20201;-94
2021/12/24 11:27:50;;;;;;;31.00;13.75;;;10.00;99.90;;;;;;4197045;28;20672;-94
2021/12/24 11:30:22;;;;;;;;;;;;;;;;;;;;;
2021/12/24 11:32:35;;;;;;;28.45;14.02;;;10.10;99.90;;;;;;4179826;28;20206;-94
2021/12/24 11:35:18;;;;;;;38.90;19.90;;;10.20;99.90;;;;;;4165652;28;20180;-94
2021/12/24 11:37:38;;;;;;;26.95;12.85;;;10.30;99.90;;;;;;4167580;28;20682;-94
2021/12/24 11:40:11;;;;;;;;;;;;;;;;;;;;;
2021/12/24 11:42:41;;;;;;;30.88;15.00;;;10.50;99.90;;;;;;4186765;28;20184;-93
2021/12/24 11:48:45;;;;;;;29.52;16.23;;;10.80;99.90;;;;;;4177302;28;20270;-94
2021/12/24 11:51:25;;;;;;;29.98;14.25;;;10.80;99.90;;;;;;4179204;28;20279;-95
2021/12/24 11:54:00;;;;;;;30.48;11.88;;;10.80;99.90;;;;;;4198621;28;20224;-94
2021/12/24 11:56:11;;;;;;;33.28;12.73;;;11.10;99.90;;;;;;4181459;28;20215;-94
2021/12/24 11:58:24;;;;;;;30.20;15.98;;;11.30;99.90;;;;;;4190736;28;20237;-94
2021/12/24 12:00:42;;;;;;;30.10;12.48;;;11.20;99.90;;;;;;4181595;28;20183;-95
2021/12/24 12:02:50;;;;;;;25.17;11.50;;;10.80;99.90;;;;;;4181345;28;20164;-94
2021/12/24 12:05:14;;;;;;;28.23;12.32;;;10.80;99.90;;;;;;4181142;28;20222;-94
2021/12/24 12:07:17;;;;;;;28.60;12.95;;;10.90;99.90;;;;;;4181619;28;20186;-93
2021/12/24 12:09:40;;;;;;;24.60;13.15;;;11.00;99.90;;;;;;4181710;28;20171;-94
2021/12/24 12:12:16;;;;;;;26.25;13.48;;;10.80;99.90;;;;;;4181228;28;20175;-94
2021/12/24 12:14:33;;;;;;;29.20;14.35;;;10.80;99.90;;;;;;4181140;28;20215;-94
2021/12/24 12:16:55;;;;;;;110.20;50.05;;;10.90;99.90;;;;;;4181148;28;20226;-95
2021/12/24 12:22:10;;;;;;;32.97;15.00;;;10.70;99.90;;;;;;4214432;28;20201;-94
2021/12/24 12:26:48;;;;;;;27.63;13.55;;;10.90;99.90;;;;;;4214584;28;20190;-94
2021/12/24 12:29:22;;;;;;;34.95;14.43;;;10.90;99.90;;;;;;4198187;28;20229;-94
2021/12/24 12:31:28;;;;;;;31.45;14.52;;;10.90;99.90;;;;;;4197773;28;20174;-96
2021/12/24 12:33:41;;;;;;;31.55;13.73;;;10.80;99.90;;;;;;4182713;28;20159;-94
2021/12/24 12:35:56;;;;;;;25.52;14.70;;;10.70;99.90;;;;;;4164773;28;20191;-95
2021/12/24 12:37:57;;;;;;;29.17;14.07;;;10.80;99.90;;;;;;4198293;28;20206;-94
2021/12/24 12:40:25;;;;;;;28.50;13.70;;;10.80;99.90;;;;;;4184218;28;20221;-94
2021/12/24 12:42:57;;;;;;;31.08;14.68;;;10.70;99.90;;;;;;4184846;28;20171;-95
2021/12/24 12:45:25;;;;;;;23.75;12.68;;;10.70;99.90;;;;;;4201088;28;20268;-95
2021/12/24 12:47:37;;;;;;;28.40;13.55;;;10.70;99.90;;;;;;4217233;28;20186;-95
2021/12/24 12:49:54;;;;;;;30.35;13.95;;;10.70;99.90;;;;;;4201270;28;20183;-94
2021/12/24 12:52:16;;;;;;;40.40;15.43;;;10.90;99.90;;;;;;4168070;28;20164;-95
2021/12/24 12:54:27;;;;;;;27.05;13.55;;;11.20;99.90;;;;;;4184955;28;20179;-91
2021/12/24 12:56:30;;;;;;;33.60;13.18;;;11.40;99.90;;;;;;4200904;28;20203;-91
2021/12/24 12:58:31;;;;;;;25.75;13.13;;;11.40;99.90;;;;;;4167647;28;20169;-91
2021/12/24 13:00:33;;;;;;;25.63;13.23;;;11.50;99.90;;;;;;4168197;28;20206;-92
2021/12/24 13:02:56;;;;;;;32.47;17.02;;;11.50;99.90;;;;;;4167870;28;20172;-92
2021/12/24 13:05:13;;;;;;;23.67;13.13;;;11.50;99.90;;;;;;4200661;28;20214;-93
2021/12/24 13:07:22;;;;;;;23.38;12.25;;;11.60;99.90;;;;;;4184262;28;20172;-93
2021/12/24 13:09:35;;;;;;;29.40;12.95;;;11.70;99.90;;;;;;4184563;28;21065;-94
2021/12/24 13:11:41;;;;;;;23.73;12.95;;;11.60;99.90;;;;;;4200695;28;20170;-91
2021/12/24 13:13:52;;;;;;;24.67;12.88;;;11.60;99.90;;;;;;4184449;28;20233;-92
2021/12/24 13:15:54;;;;;;;26.60;12.45;;;11.60;99.90;;;;;;4185040;28;20237;-92
2021/12/24 13:18:01;;;;;;;40.70;20.10;;;11.60;99.90;;;;;;4168011;28;20211;-91
2021/12/24 13:24:07;;;;;;;31.20;13.43;;;11.20;99.90;;;;;;4190624;28;20264;-94
2021/12/24 13:30:32;;;;;;;24.95;12.07;;;11.30;99.90;;;;;;4183651;28;20687;-95